Time;durP1;ratioP1;P1;durP2;ratioP2;P2;SDS_P1;SDS_P2;PMS_P1;PMS_P2;Temp;Humidity;BMP_temperature;BMP_pressure;BME280_temperature;BME280_humidity;BME280_pressure;Samples;Min_cycle;Max_cycle;Signal;HPM_P1;HPM_P2
2023/09/03 00:00:28;;;;;;;2.15;1.00;;;20.50;95.80;;;;;;5093585;28;20024;-82
2023/09/03 00:02:54;;;;;;;2.70;1.23;;;20.60;95.60;;;;;;5076266;28;20024;-83
2023/09/03 00:05:20;;;;;;;1.60;1.30;;;20.50;95.60;;;;;;5092463;28;20025;-83
2023/09/03 00:07:46;;;;;;;2.05;1.33;;;20.50;95.60;;;;;;5093754;28;20078;-83
2023/09/03 00:10:11;;;;;;;2.05;1.33;;;20.50;95.50;;;;;;5093540;28;20559;-82
2023/09/03 00:12:37;;;;;;;1.83;1.40;;;20.50;95.50;;;;;;5093830;28;20031;-84
2023/09/03 00:15:04;;;;;;;2.20;1.67;;;20.50;95.50;;;;;;5094588;28;20044;-83
2023/09/03 00:17:30;;;;;;;1.67;1.35;;;20.50;95.50;;;;;;5095995;28;20028;-83
2023/09/03 00:19:56;;;;;;;1.98;1.45;;;20.50;95.50;;;;;;5096668;28;20093;-83
2023/09/03 00:22:21;;;;;;;2.00;1.30;;;20.40;95.50;;;;;;5098692;28;20428;-83
2023/09/03 00:24:47;;;;;;;1.70;1.08;;;20.40;95.50;;;;;;5098519;28;20445;-83
2023/09/03 00:27:13;;;;;;;2.15;1.50;;;20.40;95.50;;;;;;5096614;28;20055;-83
2023/09/03 00:29:40;;;;;;;2.35;1.60;;;20.40;95.50;;;;;;5098219;28;20028;-84
2023/09/03 00:32:06;;;;;;;3.50;1.80;;;20.40;95.50;;;;;;5100031;28;20035;-83
2023/09/03 00:34:32;;;;;;;2.30;1.30;;;20.40;95.40;;;;;;5099219;28;20040;-84
2023/09/03 00:36:58;;;;;;;1.77;1.17;;;20.30;95.50;;;;;;5098961;28;20020;-83
2023/09/03 00:39:24;;;;;;;1.83;1.25;;;20.40;95.60;;;;;;5099613;28;20032;-83
2023/09/03 00:41:50;;;;;;;0.90;0.70;;;20.40;95.60;;;;;;5096393;28;20426;-84
2023/09/03 00:44:15;;;;;;;1.40;0.93;;;20.40;95.60;;;;;;5098026;28;20049;-84
2023/09/03 00:46:42;;;;;;;2.08;1.40;;;20.30;95.60;;;;;;5080362;28;20077;-84
2023/09/03 00:49:10;;;;;;;1.50;1.00;;;20.30;95.60;;;;;;5098378;28;20081;-83
2023/09/03 00:51:36;;;;;;;1.80;1.25;;;20.30;95.70;;;;;;5096326;28;20028;-84
2023/09/03 00:54:03;;;;;;;2.22;1.35;;;20.30;95.60;;;;;;5098389;28;20040;-84
2023/09/03 00:56:30;;;;;;;2.75;1.90;;;20.30;95.60;;;;;;5096983;28;20452;-83
2023/09/03 00:58:56;;;;;;;2.55;1.88;;;20.30;95.40;;;;;;5095871;28;20078;-83
2023/09/03 01:01:22;;;;;;;1.20;0.90;;;20.20;95.50;;;;;;5097597;28;20457;-84
2023/09/03 01:03:48;;;;;;;2.08;1.48;;;20.30;95.60;;;;;;5100874;28;20396;-84
2023/09/03 01:06:14;;;;;;;4.03;1.35;;;20.30;95.60;;;;;;5100744;28;20113;-84
2023/09/03 01:08:40;;;;;;;3.10;1.83;;;20.20;95.60;;;;;;5098513;28;20024;-83
2023/09/03 01:11:38;;;;;;;1.33;1.00;;;20.20;95.70;;;;;;5098657;28;20024;-84
2023/09/03 01:14:18;;;;;;;2.65;1.45;;;20.20;95.70;;;;;;5100590;28;20092;-84
2023/09/03 01:16:53;;;;;;;2.33;1.50;;;20.20;95.70;;;;;;5098447;28;20028;-84
2023/09/03 01:20:04;;;;;;;1.50;1.20;;;20.20;95.70;;;;;;5097718;28;20020;-84
2023/09/03 01:22:51;;;;;;;1.08;0.82;;;20.20;95.70;;;;;;5097780;28;20024;-85
2023/09/03 01:25:55;;;;;;;1.50;1.00;;;20.20;95.70;;;;;;5097987;28;20523;-84
2023/09/03 01:28:20;;;;;;;2.97;2.08;;;20.20;95.70;;;;;;5097914;28;20035;-84
2023/09/03 01:30:47;;;;;;;1.88;0.95;;;20.30;95.60;;;;;;5096967;28;20020;-85
2023/09/03 01:33:15;;;;;;;1.70;1.10;;;20.20;96.00;;;;;;5096770;28;20074;-84
2023/09/03 01:35:41;;;;;;;1.25;1.00;;;20.10;95.80;;;;;;5099919;28;20027;-85
2023/09/03 01:38:07;;;;;;;1.55;1.30;;;20.10;95.80;;;;;;5102338;28;20036;-84
2023/09/03 01:40:33;;;;;;;2.33;1.15;;;20.10;95.80;;;;;;5098171;28;20372;-84
2023/09/03 01:42:58;;;;;;;2.05;1.35;;;20.20;95.90;;;;;;5095738;28;20048;-84
2023/09/03 01:45:38;;;;;;;1.55;1.08;;;20.20;95.90;;;;;;5079415;28;20059;-84
2023/09/03 01:48:31;;;;;;;1.92;1.42;;;20.20;95.90;;;;;;5097028;28;20016;-85
2023/09/03 01:51:25;;;;;;;1.55;1.02;;;20.20;95.90;;;;;;5099201;28;20079;-85
2023/09/03 01:54:18;;;;;;;1.83;1.13;;;20.20;95.80;;;;;;5071665;28;20032;-85
2023/09/03 01:56:57;;;;;;;1.85;1.13;;;20.20;95.80;;;;;;5098677;28;20028;-85
2023/09/03 01:59:28;;;;;;;1.10;0.80;;;20.30;95.90;;;;;;5099499;28;20038;-85
2023/09/03 02:01:55;;;;;;;2.28;1.15;;;20.20;95.80;;;;;;5097821;28;20435;-86
2023/09/03 02:04:20;;;;;;;3.30;1.48;;;20.20;95.80;;;;;;5096365;28;20030;-85
2023/09/03 02:06:46;;;;;;;2.00;1.40;;;20.20;95.80;;;;;;5098680;28;20052;-85
2023/09/03 02:09:12;;;;;;;2.25;1.10;;;20.20;95.80;;;;;;5081567;28;20035;-86
2023/09/03 02:11:38;;;;;;;1.77;1.00;;;20.20;95.90;;;;;;5098177;28;20040;-86
2023/09/03 02:14:03;;;;;;;1.90;1.13;;;20.20;95.90;;;;;;5100900;28;20055;-86
2023/09/03 02:16:29;;;;;;;2.25;1.15;;;20.20;95.90;;;;;;5081770;28;20050;-85
2023/09/03 02:18:54;;;;;;;1.98;1.48;;;20.20;95.80;;;;;;5104276;28;20032;-85
2023/09/03 02:21:20;;;;;;;1.42;1.30;;;20.20;95.80;;;;;;5101552;28;20376;-85
2023/09/03 02:23:46;;;;;;;2.05;1.05;;;20.20;95.80;;;;;;5104302;28;20058;-85
2023/09/03 02:26:12;;;;;;;1.42;0.75;;;20.20;95.70;;;;;;5105805;28;20050;-85
2023/09/03 02:28:37;;;;;;;1.83;1.35;;;20.20;95.80;;;;;;5102213;28;20020;-85
2023/09/03 02:31:03;;;;;;;2.53;1.40;;;20.20;95.80;;;;;;5104174;28;20031;-85
2023/09/03 02:33:29;;;;;;;2.00;1.75;;;20.20;95.70;;;;;;5106876;28;20039;-85
2023/09/03 02:35:54;;;;;;;1.60;1.40;;;20.20;95.80;;;;;;5102412;28;20035;-86
2023/09/03 02:38:20;;;;;;;2.25;1.70;;;20.20;95.80;;;;;;5097391;28;20383;-85
2023/09/03 02:40:46;;;;;;;3.00;1.40;;;20.20;95.80;;;;;;5095417;28;20468;-85
2023/09/03 02:43:12;;;;;;;3.25;2.30;;;20.10;95.70;;;;;;5094924;28;20060;-86
2023/09/03 02:45:38;;;;;;;2.72;1.73;;;20.20;95.80;;;;;;5096860;28;20036;-85
2023/09/03 02:48:05;;;;;;;1.30;1.10;;;20.10;95.80;;;;;;5097129;28;20032;-85
2023/09/03 02:50:33;;;;;;;2.20;1.95;;;20.10;95.80;;;;;;5097447;28;20119;-84
2023/09/03 02:52:59;;;;;;;2.63;2.10;;;20.10;95.80;;;;;;5093945;28;20028;-84
2023/09/03 02:55:25;;;;;;;2.92;1.75;;;20.00;95.80;;;;;;5076890;28;20032;-85
2023/09/03 02:57:50;;;;;;;1.95;1.40;;;20.00;95.80;;;;;;5094696;28;20442;-85
2023/09/03 03:00:18;;;;;;;3.65;1.70;;;20.00;95.80;;;;;;5096055;28;20028;-86
2023/09/03 03:02:44;;;;;;;1.40;1.10;;;20.00;95.90;;;;;;5078352;28;20468;-85
2023/09/03 03:05:09;;;;;;;1.52;1.42;;;20.00;95.90;;;;;;5094354;28;20040;-85
2023/09/03 03:07:37;;;;;;;2.08;1.00;;;20.00;95.90;;;;;;5095339;28;20029;-85
2023/09/03 03:10:04;;;;;;;3.28;1.88;;;20.00;95.90;;;;;;5076763;28;20043;-85
2023/09/03 03:12:29;;;;;;;2.47;1.75;;;20.00;95.90;;;;;;5094150;28;20027;-85
2023/09/03 03:14:55;;;;;;;2.00;1.58;;;20.00;95.90;;;;;;5076415;28;20472;-85
2023/09/03 03:17:20;;;;;;;2.97;1.63;;;20.00;95.90;;;;;;5093883;28;20476;-85
2023/09/03 03:19:50;;;;;;;2.80;1.60;;;20.00;96.00;;;;;;5076032;28;20039;-85
2023/09/03 03:22:16;;;;;;;2.47;1.73;;;19.90;96.00;;;;;;5076266;28;20032;-85
2023/09/03 03:24:41;;;;;;;1.70;1.13;;;20.00;96.00;;;;;;5095812;28;20034;-86
2023/09/03 03:27:08;;;;;;;2.13;1.60;;;20.00;96.00;;;;;;5094668;28;20035;-86
2023/09/03 03:29:33;;;;;;;2.33;1.58;;;20.00;96.00;;;;;;5098367;28;20039;-86
2023/09/03 03:31:59;;;;;;;2.67;2.00;;;20.00;96.00;;;;;;5097516;28;20028;-86
2023/09/03 03:34:25;;;;;;;3.40;2.13;;;19.90;96.00;;;;;;5080603;28;20040;-86
2023/09/03 03:36:51;;;;;;;3.92;1.92;;;19.90;96.00;;;;;;5083470;28;20044;-86
2023/09/03 03:39:17;;;;;;;2.10;1.90;;;19.90;96.00;;;;;;5103358;28;20024;-86
2023/09/03 03:41:42;;;;;;;1.73;1.42;;;19.90;96.00;;;;;;5087479;28;20051;-86
2023/09/03 03:44:08;;;;;;;2.15;1.95;;;19.90;96.00;;;;;;5096620;28;20458;-85
2023/09/03 03:46:34;;;;;;;2.10;1.73;;;19.90;96.00;;;;;;5078541;28;20368;-86
2023/09/03 03:48:59;;;;;;;3.60;2.53;;;19.80;96.00;;;;;;5095700;28;20107;-85
2023/09/03 03:51:25;;;;;;;3.15;1.98;;;19.80;96.00;;;;;;5093136;28;20024;-84
2023/09/03 03:53:51;;;;;;;2.03;1.55;;;19.70;96.00;;;;;;5092629;28;20425;-84
2023/09/03 03:56:17;;;;;;;2.58;1.85;;;19.80;96.10;;;;;;5076388;28;20119;-85
2023/09/03 03:58:44;;;;;;;2.63;1.60;;;19.80;96.10;;;;;;5093218;28;20032;-85
2023/09/03 04:01:23;;;;;;;2.28;1.50;;;19.70;96.10;;;;;;5093697;28;20035;-85
2023/09/03 04:03:50;;;;;;;2.20;1.70;;;19.70;96.10;;;;;;5077182;28;20024;-85
2023/09/03 04:06:16;;;;;;;2.38;1.70;;;19.70;96.10;;;;;;5094234;28;20024;-86
2023/09/03 04:08:45;;;;;;;3.63;1.80;;;19.70;96.20;;;;;;5099166;28;20111;-86
2023/09/03 04:11:13;;;;;;;1.73;1.17;;;19.70;96.20;;;;;;5082447;28;20036;-86
2023/09/03 04:13:40;;;;;;;2.42;1.90;;;19.70;96.20;;;;;;5098657;28;20042;-86
2023/09/03 04:16:09;;;;;;;2.15;1.33;;;19.70;96.20;;;;;;5097026;28;20032;-86
2023/09/03 04:18:35;;;;;;;3.33;1.85;;;19.60;96.10;;;;;;5099852;28;20028;-85
2023/09/03 04:21:00;;;;;;;2.25;1.60;;;19.60;96.20;;;;;;5098809;28;20075;-85
2023/09/03 04:23:26;;;;;;;3.30;1.95;;;19.60;96.20;;;;;;5099222;28;20085;-85
2023/09/03 04:25:52;;;;;;;1.77;1.55;;;19.60;96.20;;;;;;5099839;28;20306;-86
2023/09/03 04:28:21;;;;;;;2.67;1.50;;;19.60;96.20;;;;;;5101803;28;20032;-85
2023/09/03 04:30:55;;;;;;;2.70;1.67;;;19.50;96.20;;;;;;5082403;28;20028;-85
2023/09/03 04:33:21;;;;;;;1.98;1.13;;;19.60;96.30;;;;;;5097610;28;20461;-85
2023/09/03 04:35:46;;;;;;;2.15;1.33;;;19.60;96.30;;;;;;5097287;28;20032;-85
2023/09/03 04:38:12;;;;;;;2.40;1.80;;;19.60;96.30;;;;;;5082396;28;20365;-85
2023/09/03 04:40:38;;;;;;;2.83;2.10;;;19.60;96.30;;;;;;5097864;28;20358;-86
2023/09/03 04:43:04;;;;;;;2.28;1.75;;;19.60;96.30;;;;;;5097778;28;20104;-85
2023/09/03 04:45:31;;;;;;;2.85;2.00;;;19.60;96.30;;;;;;5097868;28;20028;-85
2023/09/03 04:47:58;;;;;;;2.40;1.80;;;19.60;96.30;;;;;;5098920;28;20112;-85
2023/09/03 04:50:25;;;;;;;1.38;1.20;;;19.60;96.30;;;;;;5099581;28;20032;-85
2023/09/03 04:52:54;;;;;;;1.27;1.17;;;19.60;96.30;;;;;;5097607;28;20028;-85
2023/09/03 04:55:19;;;;;;;2.38;1.70;;;19.60;96.30;;;;;;5097381;28;20035;-83
2023/09/03 04:57:45;;;;;;;2.80;1.35;;;19.60;96.30;;;;;;5097797;28;20020;-85
2023/09/03 05:00:11;;;;;;;2.45;1.70;;;19.60;96.20;;;;;;5097294;28;20028;-85
2023/09/03 05:02:37;;;;;;;1.35;1.20;;;19.60;96.30;;;;;;5095625;28;20123;-85
2023/09/03 05:05:03;;;;;;;2.15;1.58;;;19.60;96.30;;;;;;5095831;28;20103;-85
2023/09/03 05:07:29;;;;;;;1.95;1.23;;;19.60;96.20;;;;;;5095847;28;20097;-86
2023/09/03 05:09:57;;;;;;;2.15;1.80;;;19.60;96.30;;;;;;5095603;28;20032;-85
2023/09/03 05:12:23;;;;;;;2.28;1.17;;;19.60;96.30;;;;;;5094878;28;20118;-85
2023/09/03 05:14:49;;;;;;;2.33;1.88;;;19.60;96.30;;;;;;5096425;28;20123;-85
2023/09/03 05:17:15;;;;;;;2.53;2.25;;;19.60;96.30;;;;;;5078473;28;20027;-85
2023/09/03 05:19:41;;;;;;;1.60;1.48;;;19.60;96.20;;;;;;5095930;28;20060;-85
2023/09/03 05:22:07;;;;;;;2.15;1.85;;;19.70;96.20;;;;;;5078235;28;20093;-85
2023/09/03 05:24:32;;;;;;;3.88;1.83;;;19.60;96.20;;;;;;5096156;28;20036;-85
2023/09/03 05:26:58;;;;;;;2.55;2.20;;;19.70;96.20;;;;;;5094987;28;20384;-85
2023/09/03 05:29:24;;;;;;;2.25;1.60;;;19.70;96.50;;;;;;5095524;28;20055;-84
2023/09/03 05:31:52;;;;;;;3.28;2.33;;;19.70;96.20;;;;;;5095888;28;20496;-86
2023/09/03 05:34:17;;;;;;;2.78;2.50;;;19.70;96.20;;;;;;5096719;28;20071;-85
2023/09/03 05:36:43;;;;;;;2.40;2.08;;;19.70;96.20;;;;;;5096382;28;20059;-85
2023/09/03 05:39:09;;;;;;;2.40;2.20;;;19.70;96.20;;;;;;5096535;28;20073;-85
2023/09/03 05:41:34;;;;;;;3.25;2.40;;;19.70;96.20;;;;;;5095358;28;20160;-86
2023/09/03 05:44:08;;;;;;;2.95;2.40;;;19.70;96.10;;;;;;5095540;28;20431;-85
2023/09/03 05:46:38;;;;;;;3.28;2.97;;;19.70;96.10;;;;;;5079713;28;20032;-86
2023/09/03 05:49:03;;;;;;;2.67;2.35;;;19.70;96.10;;;;;;5096076;28;20032;-86
2023/09/03 05:51:29;;;;;;;2.50;2.08;;;19.80;96.10;;;;;;5094711;28;20475;-86
2023/09/03 05:53:55;;;;;;;2.58;2.25;;;19.80;96.10;;;;;;5094453;28;20040;-85
2023/09/03 05:56:21;;;;;;;2.50;1.95;;;19.80;96.10;;;;;;5095797;28;20040;-85
2023/09/03 05:58:46;;;;;;;2.20;1.77;;;19.80;96.00;;;;;;5094460;28;20032;-85
2023/09/03 06:01:12;;;;;;;2.25;1.90;;;19.80;96.10;;;;;;5096545;28;20032;-85
2023/09/03 06:03:40;;;;;;;2.95;2.15;;;19.80;96.10;;;;;;5077730;28;20399;-85
2023/09/03 06:06:07;;;;;;;3.30;2.35;;;19.80;96.10;;;;;;5095262;28;20078;-85
2023/09/03 06:08:34;;;;;;;2.55;1.90;;;19.80;96.10;;;;;;5094634;28;20024;-84
2023/09/03 06:11:01;;;;;;;2.58;2.00;;;19.80;96.10;;;;;;5095653;28;20024;-85
2023/09/03 06:13:27;;;;;;;3.15;1.85;;;19.90;96.10;;;;;;5093687;28;20032;-85
2023/09/03 06:15:56;;;;;;;4.88;4.38;;;19.90;96.10;;;;;;5095352;28;20383;-85
2023/09/03 06:18:22;;;;;;;3.10;2.83;;;19.80;96.00;;;;;;5078001;28;20478;-84
2023/09/03 06:20:49;;;;;;;3.00;2.10;;;19.70;96.20;;;;;;5093923;28;20047;-84
2023/09/03 06:23:18;;;;;;;4.18;3.13;;;19.60;96.30;;;;;;5095225;28;20028;-84
2023/09/03 06:25:48;;;;;;;3.75;3.15;;;19.60;96.40;;;;;;5094922;28;20032;-85
2023/09/03 06:28:14;;;;;;;5.03;4.00;;;19.50;96.50;;;;;;5095043;28;20062;-85
2023/09/03 06:30:40;;;;;;;3.50;2.83;;;19.40;96.70;;;;;;5093359;28;20387;-85
2023/09/03 06:33:06;;;;;;;3.92;3.35;;;19.40;96.80;;;;;;5094853;28;20036;-85
2023/09/03 06:35:31;;;;;;;2.88;2.60;;;19.30;97.00;;;;;;5095197;28;20028;-85
2023/09/03 06:37:58;;;;;;;3.33;2.22;;;19.30;97.00;;;;;;5076789;28;20028;-84
2023/09/03 06:40:24;;;;;;;3.42;2.20;;;19.40;96.90;;;;;;5094819;28;20035;-84
2023/09/03 06:42:50;;;;;;;4.32;2.95;;;19.50;96.90;;;;;;5076390;28;20135;-84
2023/09/03 06:45:15;;;;;;;3.28;2.95;;;19.50;96.90;;;;;;5093422;28;20086;-84
2023/09/03 06:47:41;;;;;;;7.90;5.70;;;19.60;96.90;;;;;;5093726;28;20468;-84
2023/09/03 06:50:07;;;;;;;3.03;2.42;;;19.60;97.00;;;;;;5094042;28;20082;-84
2023/09/03 06:52:34;;;;;;;3.30;2.10;;;19.50;97.10;;;;;;5094709;28;20040;-84
2023/09/03 06:55:01;;;;;;;4.53;3.28;;;19.50;97.10;;;;;;5095668;28;20037;-83
2023/09/03 06:57:27;;;;;;;8.93;6.05;;;19.50;97.10;;;;;;5077377;28;20028;-83
2023/09/03 06:59:52;;;;;;;7.68;5.90;;;19.50;97.40;;;;;;5094057;28;20035;-84
2023/09/03 07:02:18;;;;;;;7.68;5.32;;;19.30;97.70;;;;;;5094679;28;20111;-84
2023/09/03 07:04:43;;;;;;;5.80;4.50;;;19.20;97.90;;;;;;5093239;28;20036;-83
2023/09/03 07:07:09;;;;;;;5.72;3.13;;;19.10;98.10;;;;;;5093250;28;20062;-84
2023/09/03 07:09:35;;;;;;;7.25;4.32;;;19.20;98.30;;;;;;5092901;28;20031;-84
2023/09/03 07:12:01;;;;;;;4.60;2.95;;;19.20;98.20;;;;;;5092645;28;20024;-84
2023/09/03 07:14:31;;;;;;;3.67;2.97;;;19.20;98.10;;;;;;5094099;28;20028;-83
2023/09/03 07:16:57;;;;;;;4.22;3.15;;;19.30;98.10;;;;;;5094313;28;20103;-83
2023/09/03 07:19:23;;;;;;;6.70;4.63;;;19.30;98.00;;;;;;5092975;28;20123;-84
2023/09/03 07:21:48;;;;;;;2.80;2.05;;;19.30;98.30;;;;;;5093710;28;20133;-84
2023/09/03 07:24:15;;;;;;;5.50;4.00;;;19.20;98.50;;;;;;5093073;28;20027;-83
2023/09/03 07:26:41;;;;;;;5.65;3.88;;;19.20;98.50;;;;;;5076453;28;20416;-84
2023/09/03 07:29:06;;;;;;;5.53;3.65;;;19.30;98.60;;;;;;5094086;28;20111;-83
2023/09/03 07:31:32;;;;;;;7.43;4.40;;;19.30;98.60;;;;;;5094314;28;20529;-84
2023/09/03 07:33:59;;;;;;;8.77;5.82;;;19.30;98.70;;;;;;5092668;28;20040;-83
2023/09/03 07:36:25;;;;;;;8.15;5.75;;;19.20;98.80;;;;;;5076026;28;20077;-83
2023/09/03 07:38:51;;;;;;;8.82;4.93;;;19.20;98.80;;;;;;5092621;28;20028;-83
2023/09/03 07:41:16;;;;;;;6.43;4.72;;;19.20;98.90;;;;;;5075055;28;20120;-83
2023/09/03 07:43:42;;;;;;;6.50;4.95;;;19.20;98.90;;;;;;5075923;28;20477;-83
2023/09/03 07:46:08;;;;;;;6.40;4.93;;;19.20;98.90;;;;;;5094033;28;20380;-83
2023/09/03 07:48:34;;;;;;;4.72;3.03;;;19.20;99.10;;;;;;5092434;28;20032;-83
2023/09/03 07:51:00;;;;;;;8.85;4.90;;;19.20;99.20;;;;;;5093223;28;20110;-83
2023/09/03 07:53:25;;;;;;;8.82;5.00;;;19.30;99.40;;;;;;5076265;28;20147;-83
2023/09/03 07:55:51;;;;;;;6.60;5.35;;;19.40;99.20;;;;;;5075974;28;20523;-83
2023/09/03 07:58:17;;;;;;;6.75;5.40;;;19.30;99.30;;;;;;5093188;28;20055;-83
2023/09/03 08:00:42;;;;;;;7.80;5.47;;;19.40;99.60;;;;;;5093337;28;20084;-83
2023/09/03 08:03:08;;;;;;;6.32;4.75;;;19.40;99.70;;;;;;5093222;28;20040;-82
2023/09/03 08:05:34;;;;;;;7.15;5.72;;;19.40;99.50;;;;;;5093031;28;20028;-82
2023/09/03 08:07:59;;;;;;;4.82;4.28;;;19.40;99.20;;;;;;5094230;28;20361;-83
2023/09/03 08:10:26;;;;;;;6.85;4.78;;;19.40;99.30;;;;;;5094587;28;20028;-82
2023/09/03 08:12:51;;;;;;;6.55;5.07;;;19.40;99.30;;;;;;5093857;28;20024;-83
2023/09/03 08:15:17;;;;;;;6.65;4.57;;;19.40;99.60;;;;;;5093725;28;20101;-83
2023/09/03 08:17:43;;;;;;;6.18;4.88;;;19.50;99.30;;;;;;5093330;28;20035;-83
2023/09/03 08:20:09;;;;;;;9.18;4.70;;;19.60;99.50;;;;;;5075301;28;20066;-83
2023/09/03 08:22:36;;;;;;;4.72;3.95;;;19.70;99.70;;;;;;5092849;28;20032;-83
2023/09/03 08:25:02;;;;;;;4.38;3.10;;;19.80;99.20;;;;;;5091755;28;20028;-83
2023/09/03 08:27:28;;;;;;;4.78;3.15;;;20.00;99.10;;;;;;5092293;28;20028;-83
2023/09/03 08:29:53;;;;;;;4.57;2.63;;;20.10;98.80;;;;;;5092442;28;20028;-83
2023/09/03 08:32:19;;;;;;;4.57;3.30;;;20.30;98.30;;;;;;5092576;28;20024;-83
2023/09/03 08:34:45;;;;;;;6.32;4.25;;;20.50;98.30;;;;;;5075126;28;20089;-83
2023/09/03 08:37:10;;;;;;;5.45;3.38;;;20.60;98.20;;;;;;5093332;28;20055;-83
2023/09/03 08:39:36;;;;;;;6.90;4.90;;;20.70;97.60;;;;;;5091732;28;20056;-83
2023/09/03 08:42:03;;;;;;;6.93;4.50;;;20.80;97.10;;;;;;5091961;28;20035;-83
2023/09/03 08:44:32;;;;;;;5.63;4.50;;;20.90;96.50;;;;;;5093165;28;20504;-84
2023/09/03 08:47:03;;;;;;;6.38;5.22;;;20.90;97.40;;;;;;5091872;28;20369;-84
2023/09/03 08:49:31;;;;;;;9.23;5.65;;;21.10;97.60;;;;;;5092532;28;20063;-83
2023/09/03 08:51:57;;;;;;;3.97;3.33;;;21.10;97.30;;;;;;5091959;28;20036;-84
2023/09/03 08:54:27;;;;;;;5.15;3.75;;;21.20;97.30;;;;;;5096986;28;20036;-83
2023/09/03 08:56:53;;;;;;;5.63;5.03;;;21.40;97.00;;;;;;5079037;28;20032;-84
2023/09/03 08:59:18;;;;;;;9.68;5.30;;;21.50;96.90;;;;;;5095168;28;20024;-85
2023/09/03 09:01:52;;;;;;;5.85;3.30;;;21.60;96.30;;;;;;5096868;28;20081;-84
2023/09/03 09:04:19;;;;;;;6.03;4.72;;;21.70;95.80;;;;;;5096484;28;20039;-85
2023/09/03 09:06:46;;;;;;;5.80;4.30;;;21.90;95.90;;;;;;5078971;28;20085;-85
2023/09/03 09:09:14;;;;;;;7.97;5.30;;;22.00;95.70;;;;;;5095125;28;20537;-84
2023/09/03 09:11:49;;;;;;;6.18;4.63;;;22.00;95.20;;;;;;5095362;28;20024;-84
2023/09/03 09:14:28;;;;;;;9.43;4.05;;;22.00;94.90;;;;;;5096498;28;20032;-84
2023/09/03 09:16:54;;;;;;;6.93;5.07;;;22.10;94.90;;;;;;5096348;28;20085;-84
2023/09/03 09:19:19;;;;;;;6.45;4.25;;;22.20;94.80;;;;;;5095119;28;20032;-84
2023/09/03 09:21:45;;;;;;;5.22;4.45;;;22.20;95.10;;;;;;5095012;28;20028;-84
2023/09/03 09:24:11;;;;;;;5.43;4.05;;;22.20;94.60;;;;;;5096149;28;20067;-84
2023/09/03 09:26:38;;;;;;;3.67;3.25;;;22.20;95.00;;;;;;5094916;28;20028;-84
2023/09/03 09:29:05;;;;;;;5.55;3.97;;;22.20;94.80;;;;;;5094968;28;20032;-84
2023/09/03 09:31:32;;;;;;;4.78;3.47;;;22.40;94.90;;;;;;5094768;28;20079;-84
2023/09/03 09:34:10;;;;;;;5.53;4.05;;;22.40;94.80;;;;;;5095785;28;20066;-84
2023/09/03 09:36:36;;;;;;;4.28;3.20;;;22.50;94.80;;;;;;5094800;28;20028;-84
2023/09/03 09:39:06;;;;;;;3.15;2.80;;;22.50;95.30;;;;;;5094967;28;20035;-84
2023/09/03 09:41:37;;;;;;;3.60;2.63;;;22.60;94.20;;;;;;5094517;28;20025;-84
2023/09/03 09:44:09;;;;;;;3.90;2.50;;;22.60;94.10;;;;;;5094198;28;20059;-85
2023/09/03 09:46:34;;;;;;;4.03;2.55;;;22.60;94.40;;;;;;5095822;28;20028;-85
2023/09/03 09:49:01;;;;;;;3.35;2.28;;;22.70;93.90;;;;;;5094353;28;20059;-85
2023/09/03 09:51:29;;;;;;;3.90;1.90;;;22.80;93.30;;;;;;5095708;28;20101;-85
2023/09/03 09:53:59;;;;;;;5.72;2.20;;;22.80;92.50;;;;;;5096030;28;20444;-84
2023/09/03 09:56:27;;;;;;;3.35;2.03;;;22.90;92.20;;;;;;5077348;28;20035;-84
2023/09/03 09:58:53;;;;;;;3.78;2.75;;;22.90;92.60;;;;;;5077369;28;20047;-85
2023/09/03 10:01:19;;;;;;;3.40;2.03;;;22.90;92.70;;;;;;5094041;28;20472;-85
2023/09/03 10:03:44;;;;;;;2.92;1.70;;;23.00;92.70;;;;;;5093744;28;20032;-85
2023/09/03 10:06:16;;;;;;;6.38;2.78;;;23.20;92.30;;;;;;5095164;28;20020;-85
2023/09/03 10:08:44;;;;;;;3.40;2.03;;;23.30;92.10;;;;;;5095541;28;20024;-85
2023/09/03 10:11:11;;;;;;;3.50;2.50;;;23.30;91.80;;;;;;5094022;28;20029;-85
2023/09/03 10:13:39;;;;;;;3.35;1.85;;;23.40;91.60;;;;;;5095234;28;20039;-85
2023/09/03 10:16:07;;;;;;;2.80;1.70;;;23.50;91.50;;;;;;5094925;28;20031;-85
2023/09/03 10:18:40;;;;;;;2.88;1.35;;;23.50;89.50;;;;;;5095192;28;20020;-84
2023/09/03 10:21:09;;;;;;;0.88;0.73;;;23.40;87.10;;;;;;5095242;28;20052;-85
2023/09/03 10:23:48;;;;;;;0.82;0.50;;;23.40;88.30;;;;;;5093957;28;20043;-83
2023/09/03 10:26:21;;;;;;;2.40;2.13;;;23.50;89.10;;;;;;5076871;28;20081;-85
2023/09/03 10:28:50;;;;;;;3.10;1.52;;;23.50;87.70;;;;;;5094216;28;20031;-85
2023/09/03 10:31:17;;;;;;;1.73;0.98;;;23.50;88.10;;;;;;5095264;28;20024;-85
2023/09/03 10:33:42;;;;;;;2.28;1.00;;;23.50;88.30;;;;;;5094897;28;20085;-85
2023/09/03 10:36:19;;;;;;;1.63;0.57;;;23.50;88.80;;;;;;5093443;28;20106;-85
2023/09/03 10:38:45;;;;;;;2.40;1.33;;;23.70;89.20;;;;;;5095125;28;20043;-85
2023/09/03 10:41:19;;;;;;;1.98;1.30;;;23.70;86.40;;;;;;5093268;28;20058;-85
2023/09/03 10:43:46;;;;;;;2.17;1.30;;;23.70;86.60;;;;;;5093104;28;20055;-84
2023/09/03 10:46:12;;;;;;;2.28;1.13;;;23.70;86.80;;;;;;5094561;28;20036;-85
2023/09/03 10:48:38;;;;;;;2.08;0.85;;;23.70;86.50;;;;;;5093219;28;20499;-85
2023/09/03 10:51:04;;;;;;;2.85;1.10;;;23.80;86.60;;;;;;5093872;28;20096;-85
2023/09/03 10:53:41;;;;;;;1.92;1.02;;;23.90;85.80;;;;;;5094673;28;20032;-85
2023/09/03 10:56:09;;;;;;;2.25;0.90;;;23.80;85.60;;;;;;5095085;28;20471;-85
2023/09/03 10:58:50;;;;;;;2.25;0.80;;;23.70;86.60;;;;;;5093018;28;20031;-84
2023/09/03 11:01:17;;;;;;;1.85;0.38;;;23.80;86.00;;;;;;5093781;28;20051;-85
2023/09/03 11:03:48;;;;;;;1.05;0.63;;;23.70;83.30;;;;;;5094284;28;20028;-85
2023/09/03 11:06:21;;;;;;;2.63;0.82;;;23.80;83.60;;;;;;5094222;28;20024;-86
2023/09/03 11:09:10;;;;;;;1.75;1.00;;;23.90;84.60;;;;;;5093561;28;20043;-85
2023/09/03 11:11:38;;;;;;;3.38;1.23;;;23.90;82.80;;;;;;5081039;28;20059;-85
2023/09/03 11:14:07;;;;;;;1.17;0.73;;;23.80;82.60;;;;;;5094651;28;20139;-85
2023/09/03 11:16:38;;;;;;;1.60;0.50;;;23.80;83.80;;;;;;5094067;28;20021;-85
2023/09/03 11:19:07;;;;;;;1.95;0.60;;;23.90;84.40;;;;;;5094474;28;20360;-86
2023/09/03 11:21:33;;;;;;;2.15;0.65;;;24.00;84.10;;;;;;5094345;28;20457;-85
2023/09/03 11:24:05;;;;;;;2.97;0.77;;;24.00;82.80;;;;;;5092973;28;20044;-85
2023/09/03 11:26:32;;;;;;;2.05;0.55;;;24.00;83.10;;;;;;5094053;28;20017;-85
2023/09/03 11:29:00;;;;;;;2.00;0.82;;;24.10;83.20;;;;;;5092836;28;20028;-85
2023/09/03 11:31:26;;;;;;;1.15;0.68;;;24.20;82.50;;;;;;5093948;28;20028;-85
2023/09/03 11:33:52;;;;;;;2.38;1.05;;;24.10;81.40;;;;;;5092564;28;20032;-85
2023/09/03 11:36:21;;;;;;;2.63;0.70;;;24.00;83.20;;;;;;5093866;28;20024;-85
2023/09/03 11:38:51;;;;;;;1.20;0.70;;;24.00;82.40;;;;;;5093808;28;20506;-85
2023/09/03 11:41:20;;;;;;;1.92;0.60;;;24.00;82.50;;;;;;5092581;28;20411;-84
2023/09/03 11:43:47;;;;;;;1.48;0.50;;;24.10;81.10;;;;;;5092371;28;20446;-85
2023/09/03 11:46:14;;;;;;;0.80;0.20;;;24.00;81.30;;;;;;5093067;28;20081;-85
2023/09/03 11:48:41;;;;;;;1.40;0.50;;;24.20;81.80;;;;;;5092572;28;20056;-85
2023/09/03 11:51:07;;;;;;;1.27;0.30;;;24.40;80.30;;;;;;5093713;28;20566;-84
2023/09/03 11:53:41;;;;;;;0.95;0.43;;;24.40;76.80;;;;;;5092437;28;20040;-85
2023/09/03 11:56:10;;;;;;;0.80;0.30;;;24.40;77.60;;;;;;5093703;28;20500;-84
2023/09/03 11:58:37;;;;;;;0.80;0.25;;;24.40;77.40;;;;;;5092985;28;20372;-85
2023/09/03 12:01:03;;;;;;;1.60;0.20;;;24.60;78.10;;;;;;5093558;28;20024;-84
2023/09/03 12:03:29;;;;;;;0.73;0.22;;;24.70;76.20;;;;;;5076473;28;20032;-85
2023/09/03 12:05:55;;;;;;;0.47;0.20;;;24.70;73.20;;;;;;5075389;28;20028;-85
2023/09/03 12:08:21;;;;;;;0.45;0.20;;;24.60;68.10;;;;;;5075639;28;20032;-84
2023/09/03 12:10:51;;;;;;;0.60;0.20;;;24.50;69.10;;;;;;5092771;28;20520;-84
2023/09/03 12:13:30;;;;;;;0.60;0.32;;;24.60;70.90;;;;;;5092812;28;20047;-84
2023/09/03 12:16:10;;;;;;;0.50;0.30;;;24.80;73.00;;;;;;5093769;28;20028;-85
2023/09/03 12:18:37;;;;;;;0.65;0.30;;;24.80;73.40;;;;;;5076572;28;20402;-84
2023/09/03 12:21:07;;;;;;;0.85;0.30;;;24.80;73.50;;;;;;5092254;28;20035;-84
2023/09/03 12:23:35;;;;;;;0.63;0.20;;;24.70;72.30;;;;;;5092752;28;20080;-85
2023/09/03 12:26:01;;;;;;;1.42;0.30;;;24.70;73.30;;;;;;5093789;28;20472;-85
2023/09/03 12:28:37;;;;;;;0.80;0.20;;;24.60;72.70;;;;;;5095100;28;20032;-87
2023/09/03 12:31:05;;;;;;;0.57;0.28;;;24.70;73.20;;;;;;5096283;28;20024;-84
2023/09/03 12:33:33;;;;;;;0.68;0.20;;;24.80;72.50;;;;;;5097229;28;20036;-84
2023/09/03 12:36:18;;;;;;;0.88;0.20;;;24.80;73.20;;;;;;5096074;28;20024;-84
2023/09/03 12:38:55;;;;;;;2.10;0.25;;;24.90;74.20;;;;;;5097258;28;20028;-84
2023/09/03 12:41:34;;;;;;;1.23;0.82;;;24.90;74.20;;;;;;5095974;28;20032;-84
2023/09/03 12:44:09;;;;;;;1.42;0.30;;;25.00;73.30;;;;;;5079425;28;20059;-85
2023/09/03 12:46:38;;;;;;;0.88;0.20;;;24.80;71.20;;;;;;5097000;28;20039;-85
2023/09/03 12:49:04;;;;;;;1.10;0.50;;;24.70;73.30;;;;;;5096874;28;20031;-84
2023/09/03 12:51:31;;;;;;;1.25;0.30;;;24.60;74.30;;;;;;5095400;28;20561;-85